Time;durP1;ratioP1;P1;durP2;ratioP2;P2;SDS_P1;SDS_P2;PMS_P1;PMS_P2;Temp;Humidity;BMP_temperature;BMP_pressure;BME280_temperature;BME280_humidity;BME280_pressure;Samples;Min_cycle;Max_cycle;Signal;HPM_P1;HPM_P2
2021/12/29 00:00:03;;;;;;;122.10;35.37;;;;;;;7.88;nan;-24037.03;5093653;28;20596;-69
2021/12/29 00:02:29;;;;;;;124.83;35.37;;;;;;;7.77;nan;-24034.06;5094205;28;20181;-69
2021/12/29 00:04:54;;;;;;;120.63;34.77;;;;;;;8.24;nan;-24047.25;5093895;28;20172;-68
2021/12/29 00:07:21;;;;;;;120.77;34.10;;;;;;;8.22;nan;-24046.53;5092838;28;20165;-69
2021/12/29 00:09:47;;;;;;;134.23;32.97;;;;;;;8.13;nan;-24044.00;5075346;28;20204;-69
2021/12/29 00:12:14;;;;;;;129.90;33.87;;;;;;;8.14;nan;-24044.41;5093721;28;20267;-69
2021/12/29 00:14:40;;;;;;;126.10;33.87;;;;;;;8.18;nan;-24045.41;5093501;28;20173;-68
2021/12/29 00:17:05;;;;;;;169.63;33.83;;;;;;;8.13;nan;-24044.13;5093803;28;20596;-69
2021/12/29 00:19:31;;;;;;;139.23;32.90;;;;;;;8.09;nan;-24042.84;5093555;28;20735;-69
2021/12/29 00:21:56;;;;;;;110.33;32.73;;;;;;;8.17;nan;-24045.25;5093175;28;20188;-69
2021/12/29 00:24:22;;;;;;;126.00;31.93;;;;;;;8.12;nan;-24043.84;5074864;28;20177;-69
2021/12/29 00:26:48;;;;;;;144.37;35.20;;;;;;;7.77;nan;-24034.06;5093673;28;20166;-69
2021/12/29 00:29:14;;;;;;;184.50;35.63;;;;;;;7.54;nan;-24027.56;5093248;28;20506;-69
2021/12/29 00:31:40;;;;;;;135.10;33.73;;;;;;;7.91;nan;-24037.88;5093182;28;20169;-69
2021/12/29 00:34:06;;;;;;;131.07;34.10;;;;;;;7.40;nan;-24023.59;5093512;28;20169;-69
2021/12/29 00:36:31;;;;;;;115.77;31.70;;;;;;;7.50;nan;-24026.56;5092842;28;20545;-69
2021/12/29 00:38:57;;;;;;;118.27;32.47;;;;;;;7.70;nan;-24031.94;5092984;28;20204;-69
2021/12/29 00:41:22;;;;;;;118.93;30.03;;;;;;;7.78;nan;-24034.34;5093034;28;20223;-69
2021/12/29 00:43:48;;;;;;;106.03;31.17;;;;;;;7.30;nan;-24020.88;5093161;28;20240;-69
2021/12/29 00:46:17;;;;;;;98.70;28.00;;;;;;;7.77;nan;-24033.94;5092933;28;20181;-69
2021/12/29 00:48:44;;;;;;;84.77;28.10;;;;;;;7.74;nan;-24033.06;5093227;28;20178;-69
2021/12/29 00:51:11;;;;;;;80.33;27.17;;;;;;;7.32;nan;-24021.31;5074779;28;20324;-69
2021/12/29 00:53:37;;;;;;;84.50;27.73;;;;;;;7.74;nan;-24033.22;5092791;28;20199;-69
2021/12/29 00:56:03;;;;;;;76.93;25.60;;;;;;;7.25;nan;-24019.47;5092759;28;20230;-69
2021/12/29 00:58:29;;;;;;;83.00;25.50;;;;;;;7.16;nan;-24016.91;5091532;28;20252;-69
2021/12/29 01:00:56;;;;;;;75.13;25.03;;;;;;;7.19;nan;-24017.63;5092705;28;20265;-69
2021/12/29 01:03:22;;;;;;;69.97;23.67;;;;;;;7.51;nan;-24026.84;5092875;28;20223;-69
2021/12/29 01:05:48;;;;;;;73.73;25.13;;;;;;;7.30;nan;-24020.75;5092804;28;20173;-69
2021/12/29 01:08:13;;;;;;;72.73;22.83;;;;;;;7.63;nan;-24029.97;5092228;28;20181;-69
2021/12/29 01:10:41;;;;;;;69.60;23.27;;;;;;;7.53;nan;-24027.28;5092081;28;20636;-69
2021/12/29 01:13:09;;;;;;;76.90;24.13;;;;;;;7.32;nan;-24021.47;5092614;28;20166;-69
2021/12/29 01:15:55;;;;;;;76.60;25.00;;;;;;;7.66;nan;-24030.94;5092636;28;20176;-69
2021/12/29 01:18:20;;;;;;;70.70;24.50;;;;;;;7.22;nan;-24018.47;5073803;28;20189;-69
2021/12/29 01:20:46;;;;;;;66.93;24.50;;;;;;;7.57;nan;-24028.41;5092900;28;20222;-69
2021/12/29 01:23:11;;;;;;;67.27;24.07;;;;;;;7.50;nan;-24026.41;5092521;28;20174;-69
2021/12/29 01:25:37;;;;;;;76.13;25.63;;;;;;;7.52;nan;-24026.97;5092354;28;20192;-69
2021/12/29 01:28:02;;;;;;;77.43;25.20;;;;;;;7.25;nan;-24019.47;5092480;28;20541;-69
2021/12/29 01:30:27;;;;;;;67.63;24.63;;;;;;;7.60;nan;-24029.25;5092223;28;20170;-69
2021/12/29 01:32:53;;;;;;;63.43;23.03;;;;;;;7.72;nan;-24032.66;5092232;28;20162;-69
2021/12/29 01:35:18;;;;;;;61.70;23.17;;;;;;;7.63;nan;-24029.97;5092333;28;20176;-69
2021/12/29 01:37:44;;;;;;;63.60;22.63;;;;;;;7.70;nan;-24032.09;5092515;28;20222;-69
2021/12/29 01:40:14;;;;;;;56.97;22.70;;;;;;;7.71;nan;-24032.38;5091997;28;20644;-69
2021/12/29 01:42:39;;;;;;;56.37;21.30;;;;;;;7.83;nan;-24035.63;5092447;28;20181;-69
2021/12/29 01:45:05;;;;;;;62.73;22.20;;;;;;;7.82;nan;-24035.47;5091663;28;20645;-69
2021/12/29 01:47:31;;;;;;;66.60;22.13;;;;;;;7.72;nan;-24032.66;5091822;28;20177;-69
2021/12/29 01:50:00;;;;;;;64.07;23.07;;;;;;;7.51;nan;-24026.84;5091907;28;20766;-69
2021/12/29 01:52:29;;;;;;;63.10;22.77;;;;;;;7.82;nan;-24035.47;5091997;28;20633;-69
2021/12/29 01:54:55;;;;;;;55.37;21.50;;;;;;;7.83;nan;-24035.78;5091709;28;20175;-69
2021/12/29 01:57:21;;;;;;;65.73;23.50;;;;;;;7.40;nan;-24023.59;5091573;28;20544;-69
2021/12/29 01:59:47;;;;;;;58.63;22.37;;;;;;;7.80;nan;-24034.91;5091825;28;20246;-70
2021/12/29 02:02:14;;;;;;;56.17;22.20;;;;;;;7.53;nan;-24027.28;5091999;28;20536;-69
2021/12/29 02:04:44;;;;;;;55.90;21.87;;;;;;;7.67;nan;-24031.25;5092042;28;20165;-69
2021/12/29 02:07:10;;;;;;;51.70;21.27;;;;;;;7.13;nan;-24016.06;5091968;28;20157;-69
2021/12/29 02:09:35;;;;;;;43.70;18.43;;;;;;;7.22;nan;-24018.63;5091614;28;20192;-69
2021/12/29 02:12:01;;;;;;;48.37;20.53;;;;;;;7.16;nan;-24016.78;5073751;28;20545;-69
2021/12/29 02:14:27;;;;;;;53.60;19.97;;;;;;;7.24;nan;-24019.19;5091839;28;20496;-69
2021/12/29 02:16:52;;;;;;;47.97;19.03;;;;;;;7.38;nan;-24023.16;5091214;28;20162;-69
2021/12/29 02:19:18;;;;;;;53.37;19.20;;;;;;;7.01;nan;-24012.81;5091877;28;20284;-69
2021/12/29 02:21:53;;;;;;;47.73;19.53;;;;;;;6.85;nan;-24008.13;5091771;28;20200;-69
2021/12/29 02:24:21;;;;;;;47.03;18.33;;;;;;;7.06;nan;-24014.22;5092346;28;20259;-69
2021/12/29 02:26:47;;;;;;;49.50;19.57;;;;;;;7.48;nan;-24026.00;5091899;28;20165;-69
2021/12/29 02:29:17;;;;;;;46.93;18.53;;;;;;;7.36;nan;-24022.59;5091766;28;20166;-69
2021/12/29 02:31:43;;;;;;;40.83;17.67;;;;;;;7.46;nan;-24025.44;5094355;28;20174;-69
2021/12/29 02:34:11;;;;;;;43.97;18.10;;;;;;;7.21;nan;-24018.19;5095432;28;20211;-69
2021/12/29 02:36:43;;;;;;;46.97;17.87;;;;;;;7.52;nan;-24027.13;5095367;28;20169;-69
2021/12/29 02:39:10;;;;;;;48.10;18.60;;;;;;;7.29;nan;-24020.47;5095794;28;20225;-69
2021/12/29 02:41:37;;;;;;;44.93;18.23;;;;;;;7.41;nan;-24023.88;5095357;28;20203;-69
2021/12/29 02:44:04;;;;;;;48.23;19.40;;;;;;;7.24;nan;-24019.03;5095245;28;20533;-69
2021/12/29 02:46:32;;;;;;;49.97;19.33;;;;;;;7.26;nan;-24019.63;5095088;28;20690;-69
2021/12/29 02:48:59;;;;;;;45.63;19.27;;;;;;;7.32;nan;-24021.47;5095049;28;20181;-69
2021/12/29 02:51:30;;;;;;;49.23;19.43;;;;;;;7.26;nan;-24019.75;5094822;28;20224;-69
2021/12/29 02:53:56;;;;;;;43.77;18.50;;;;;;;6.77;nan;-24006.00;5094768;28;20169;-69
2021/12/29 02:56:26;;;;;;;46.70;18.73;;;;;;;7.00;nan;-24012.53;5094779;28;20587;-69
2021/12/29 02:58:52;;;;;;;45.63;18.30;;;;;;;6.87;nan;-24008.84;5094800;28;20292;-69
2021/12/29 03:01:18;;;;;;;38.97;17.60;;;;;;;6.85;nan;-24008.13;5094796;28;20540;-69
2021/12/29 03:03:44;;;;;;;42.50;17.90;;;;;;;6.92;nan;-24010.13;5094946;28;20628;-69
2021/12/29 03:06:10;;;;;;;41.30;17.67;;;;;;;6.80;nan;-24006.72;5095622;28;20454;-69
2021/12/29 03:08:37;;;;;;;37.17;16.77;;;;;;;6.74;nan;-24005.00;5094763;28;20176;-69
2021/12/29 03:11:04;;;;;;;38.13;18.23;;;;;;;6.84;nan;-24007.84;5094991;28;20173;-69
2021/12/29 03:13:33;;;;;;;40.60;17.70;;;;;;;6.76;nan;-24005.72;5094598;28;20177;-69
2021/12/29 03:15:58;;;;;;;39.40;17.10;;;;;;;6.90;nan;-24009.69;5094660;28;20184;-69
2021/12/29 03:18:24;;;;;;;37.10;16.93;;;;;;;6.77;nan;-24006.00;5094620;28;20197;-69
2021/12/29 03:20:50;;;;;;;37.37;16.77;;;;;;;7.20;nan;-24017.91;5094844;28;20180;-69
2021/12/29 03:23:17;;;;;;;40.20;17.50;;;;;;;6.79;nan;-24006.44;5094458;28;20212;-69
2021/12/29 03:25:43;;;;;;;38.10;17.70;;;;;;;7.06;nan;-24014.22;5094794;28;20299;-69
2021/12/29 03:28:09;;;;;;;37.60;17.80;;;;;;;7.03;nan;-24013.38;5094398;28;20651;-69
2021/12/29 03:30:38;;;;;;;38.47;19.67;;;;;;;6.75;nan;-24005.28;5094487;28;20177;-69
2021/12/29 03:33:05;;;;;;;36.13;18.70;;;;;;;6.65;nan;-24002.59;5094643;28;20595;-69
2021/12/29 03:35:36;;;;;;;36.67;17.47;;;;;;;6.69;nan;-24003.59;5094518;28;20549;-69
2021/12/29 03:38:05;;;;;;;36.77;17.77;;;;;;;6.60;nan;-24001.19;5094184;28;20734;-69
2021/12/29 03:40:31;;;;;;;40.73;17.93;;;;;;;6.71;nan;-24004.16;5093874;28;20579;-68
2021/12/29 03:42:57;;;;;;;36.10;18.57;;;;;;;7.02;nan;-24013.09;5093925;28;20177;-69
2021/12/29 03:45:23;;;;;;;38.40;15.77;;;;;;;6.91;nan;-24009.81;5093696;28;20220;-69
2021/12/29 03:47:49;;;;;;;30.70;16.13;;;;;;;6.92;nan;-24010.25;5093850;28;20200;-69
2021/12/29 03:50:16;;;;;;;27.70;15.30;;;;;;;6.84;nan;-24007.84;5093960;28;20221;-69
2021/12/29 03:52:42;;;;;;;25.20;14.13;;;;;;;7.10;nan;-24015.22;5093782;28;20218;-69
2021/12/29 03:55:08;;;;;;;26.57;13.53;;;;;;;6.63;nan;-24002.16;5094083;28;20169;-68
2021/12/29 03:57:34;;;;;;;28.53;12.87;;;;;;;7.08;nan;-24014.78;5094330;28;20184;-69
2021/12/29 03:59:59;;;;;;;22.63;12.83;;;;;;;6.58;nan;-24000.59;5093732;28;20591;-69
2021/12/29 04:02:25;;;;;;;20.00;12.00;;;;;;;6.68;nan;-24003.31;5093815;28;20174;-69
2021/12/29 04:04:51;;;;;;;22.53;12.23;;;;;;;6.89;nan;-24009.41;5093889;28;20256;-69
2021/12/29 04:07:16;;;;;;;21.33;13.33;;;;;;;6.50;nan;-23998.47;5094438;28;20646;-69
2021/12/29 04:09:41;;;;;;;20.70;13.27;;;;;;;6.81;nan;-24007.00;5093589;28;20169;-69
2021/12/29 04:12:07;;;;;;;25.83;14.63;;;;;;;6.63;nan;-24002.03;5093785;28;20596;-69
2021/12/29 04:14:33;;;;;;;23.43;14.47;;;;;;;6.86;nan;-24008.56;5093647;28;20169;-69
2021/12/29 04:17:07;;;;;;;23.13;14.03;;;;;;;6.35;nan;-23994.06;5093555;28;20523;-69
2021/12/29 04:22:17;;;;;;;20.83;12.67;;;;;;;6.38;nan;-23995.06;5093576;28;20177;-68
2021/12/29 04:24:43;;;;;;;20.70;12.80;;;;;;;6.47;nan;-23997.47;5093607;28;20177;-69
2021/12/29 04:27:08;;;;;;;22.77;12.70;;;;;;;6.81;nan;-24007.13;5093189;28;20227;-68
2021/12/29 04:29:34;;;;;;;22.23;12.70;;;;;;;6.34;nan;-23993.78;5093324;28;20181;-68
2021/12/29 04:31:59;;;;;;;22.90;13.37;;;;;;;6.20;nan;-23989.97;5093335;28;20197;-68
2021/12/29 04:34:25;;;;;;;22.33;11.30;;;;;;;6.33;nan;-23993.50;5093091;28;20177;-68
2021/12/29 04:36:50;;;;;;;18.07;11.33;;;;;;;6.68;nan;-24003.44;5093164;28;20260;-68
2021/12/29 04:39:16;;;;;;;19.20;11.63;;;;;;;6.70;nan;-24003.88;5093118;28;20200;-68
2021/12/29 04:41:41;;;;;;;18.50;11.60;;;;;;;6.75;nan;-24005.44;5093175;28;20205;-68
2021/12/29 04:44:06;;;;;;;17.23;11.13;;;;;;;6.55;nan;-23999.75;5093214;28;20628;-68
2021/12/29 04:46:38;;;;;;;17.47;11.73;;;;;;;6.53;nan;-23999.31;5093134;28;20172;-68
2021/12/29 04:49:05;;;;;;;20.10;12.17;;;;;;;6.66;nan;-24002.88;5092883;28;20227;-68
2021/12/29 04:51:35;;;;;;;19.33;11.97;;;;;;;6.62;nan;-24001.88;5093042;28;20593;-68
2021/12/29 04:54:06;;;;;;;18.67;10.70;;;;;;;6.75;nan;-24005.28;5092325;28;20207;-67
2021/12/29 04:56:33;;;;;;;17.70;11.20;;;;;;;6.74;nan;-24005.16;5093038;28;20256;-68
2021/12/29 04:58:58;;;;;;;16.07;10.43;;;;;;;6.60;nan;-24001.31;5092936;28;20196;-68
2021/12/29 05:01:24;;;;;;;15.73;9.97;;;;;;;6.30;nan;-23992.66;5092255;28;20184;-68
2021/12/29 05:03:49;;;;;;;17.30;9.90;;;;;;;6.61;nan;-24001.59;5090991;28;20616;-68
2021/12/29 05:08:40;;;;;;;15.80;10.20;;;;;;;6.20;nan;-23990.09;5092793;28;20165;-68
2021/12/29 05:11:08;;;;;;;17.23;9.90;;;;;;;6.55;nan;-23999.75;5092462;28;20166;-68
2021/12/29 05:13:36;;;;;;;15.67;9.63;;;;;;;6.19;nan;-23989.81;5092241;28;20166;-68
2021/12/29 05:16:02;;;;;;;14.50;9.80;;;;;;;6.38;nan;-23994.94;5092245;28;20554;-69
2021/12/29 05:18:31;;;;;;;14.03;9.70;;;;;;;6.61;nan;-24001.59;5092354;28;20205;-68
2021/12/29 05:20:58;;;;;;;14.20;9.57;;;;;;;6.68;nan;-24003.31;5092855;28;20203;-68
2021/12/29 05:23:25;;;;;;;16.63;10.00;;;;;;;6.25;nan;-23991.22;5092651;28;20173;-67
2021/12/29 05:25:52;;;;;;;16.83;11.10;;;;;;;6.11;nan;-23987.53;5092231;28;20651;-68
2021/12/29 05:28:18;;;;;;;16.63;11.03;;;;;;;6.27;nan;-23991.81;5091727;28;20644;-69
2021/12/29 05:30:46;;;;;;;15.87;10.50;;;;;;;6.26;nan;-23991.53;5092144;28;20267;-69
2021/12/29 05:33:11;;;;;;;17.90;10.70;;;;;;;6.26;nan;-23991.66;5092234;28;20529;-72
2021/12/29 05:35:37;;;;;;;19.33;11.70;;;;;;;6.19;nan;-23989.81;5092213;28;20180;-67
2021/12/29 05:38:03;;;;;;;19.03;11.00;;;;;;;6.27;nan;-23991.81;5092118;28;20208;-68
2021/12/29 05:40:29;;;;;;;17.53;10.83;;;;;;;6.68;nan;-24003.31;5092022;28;20177;-68
2021/12/29 05:42:57;;;;;;;17.03;10.17;;;;;;;6.17;nan;-23989.09;5090559;28;20181;-68
2021/12/29 05:45:24;;;;;;;16.43;10.63;;;;;;;6.60;nan;-24001.19;5089554;28;20177;-68
2021/12/29 05:47:49;;;;;;;16.80;10.47;;;;;;;6.57;nan;-24000.31;5088698;28;20276;-68
2021/12/29 05:50:20;;;;;;;15.27;10.30;;;;;;;6.55;nan;-23999.75;5091403;28;20383;-68
2021/12/29 05:52:46;;;;;;;16.50;10.30;;;;;;;6.37;nan;-23994.66;5091823;28;20181;-68
2021/12/29 05:55:12;;;;;;;17.20;10.87;;;;;;;6.36;nan;-23994.50;5091771;28;20183;-68
2021/12/29 05:57:38;;;;;;;16.37;10.23;;;;;;;6.02;nan;-23984.97;5092098;28;20219;-69
2021/12/29 06:00:07;;;;;;;16.57;10.57;;;;;;;6.08;nan;-23986.56;5090825;28;20204;-69
2021/12/29 06:02:32;;;;;;;16.13;10.57;;;;;;;6.05;nan;-23985.69;5090752;28;20224;-69
2021/12/29 06:04:58;;;;;;;20.17;11.67;;;;;;;6.07;nan;-23986.41;5091673;28;20209;-69
2021/12/29 06:07:23;;;;;;;17.47;10.70;;;;;;;6.09;nan;-23986.84;5095202;28;20245;-68
2021/12/29 06:09:49;;;;;;;18.60;11.17;;;;;;;6.56;nan;-24000.03;5095743;28;20183;-68
2021/12/29 06:12:14;;;;;;;19.80;11.87;;;;;;;6.53;nan;-23999.19;5094414;28;20184;-68
2021/12/29 06:14:40;;;;;;;19.17;11.37;;;;;;;6.23;nan;-23990.81;5095492;28;20248;-68
2021/12/29 06:17:05;;;;;;;18.00;12.07;;;;;;;5.99;nan;-23984.00;5095328;28;20251;-68
2021/12/29 06:19:33;;;;;;;20.07;11.30;;;;;;;6.03;nan;-23985.28;5094910;28;20240;-69
2021/12/29 06:21:59;;;;;;;18.20;11.20;;;;;;;6.71;nan;-24004.28;5095111;28;20318;-69
2021/12/29 06:24:25;;;;;;;18.47;11.63;;;;;;;6.58;nan;-24000.59;5095543;28;20252;-69
2021/12/29 06:26:50;;;;;;;22.03;12.03;;;;;;;6.52;nan;-23999.03;5094553;28;20188;-68
2021/12/29 06:29:15;;;;;;;23.13;12.53;;;;;;;6.66;nan;-24002.88;5078395;28;20196;-68
2021/12/29 06:31:44;;;;;;;20.37;11.73;;;;;;;6.60;nan;-24001.19;5095912;28;20280;-68
2021/12/29 06:34:10;;;;;;;19.23;11.40;;;;;;;6.59;nan;-24000.88;5093767;28;20545;-68
2021/12/29 06:36:36;;;;;;;18.07;11.50;;;;;;;6.53;nan;-23999.19;5095431;28;20181;-68
2021/12/29 06:39:03;;;;;;;22.30;11.77;;;;;;;6.61;nan;-24001.47;5095344;28;20250;-68
2021/12/29 06:41:28;;;;;;;17.93;11.10;;;;;;;6.22;nan;-23990.66;5095139;28;20573;-68
2021/12/29 06:43:53;;;;;;;17.83;11.23;;;;;;;6.12;nan;-23987.81;5094754;28;20184;-68
2021/12/29 06:46:19;;;;;;;18.67;11.77;;;;;;;6.62;nan;-24001.75;5094947;28;20170;-68
2021/12/29 06:48:45;;;;;;;19.00;12.47;;;;;;;6.38;nan;-23994.94;5094607;28;20219;-68
2021/12/29 06:51:10;;;;;;;23.03;11.93;;;;;;;6.61;nan;-24001.59;5093731;28;20638;-69
2021/12/29 06:53:35;;;;;;;18.73;11.53;;;;;;;6.64;nan;-24002.31;5094646;28;20246;-70
2021/12/29 06:56:01;;;;;;;24.23;12.00;;;;;;;6.07;nan;-23986.25;5094752;28;20636;-69
2021/12/29 06:58:26;;;;;;;20.60;12.63;;;;;;;6.31;nan;-23993.09;5094193;28;20245;-67
2021/12/29 07:00:52;;;;;;;21.57;12.53;;;;;;;6.48;nan;-23997.75;5094926;28;20197;-68
2021/12/29 07:03:17;;;;;;;25.67;14.40;;;;;;;6.58;nan;-24000.59;5094931;28;20654;-68
2021/12/29 07:05:43;;;;;;;22.70;13.87;;;;;;;6.35;nan;-23994.06;5094843;28;20173;-70
2021/12/29 07:08:08;;;;;;;17.57;11.47;;;;;;;6.79;nan;-24006.56;5094837;28;20178;-70
2021/12/29 07:10:33;;;;;;;23.53;13.03;;;;;;;6.62;nan;-24001.88;5094520;28;20184;-68
2021/12/29 07:12:59;;;;;;;21.37;12.00;;;;;;;6.59;nan;-24000.88;5094758;28;20177;-68
2021/12/29 07:15:24;;;;;;;20.83;12.33;;;;;;;6.49;nan;-23998.19;5094361;28;20173;-68
2021/12/29 07:17:50;;;;;;;20.03;12.67;;;;;;;6.26;nan;-23991.53;5093379;28;20173;-68
2021/12/29 07:20:15;;;;;;;22.33;13.20;;;;;;;5.95;nan;-23983.00;5094530;28;20639;-68
2021/12/29 07:22:41;;;;;;;22.50;13.67;;;;;;;6.15;nan;-23988.69;5093487;28;20195;-68
2021/12/29 07:25:07;;;;;;;24.53;13.97;;;;;;;6.17;nan;-23989.09;5093909;28;20625;-67
2021/12/29 07:27:32;;;;;;;25.70;13.73;;;;;;;6.06;nan;-23986.13;5093653;28;20191;-68
2021/12/29 07:29:58;;;;;;;25.13;14.20;;;;;;;6.11;nan;-23987.53;5094638;28;20692;-68
2021/12/29 07:32:23;;;;;;;25.60;14.00;;;;;;;6.54;nan;-23999.63;5094546;28;20694;-68
2021/12/29 07:34:49;;;;;;;25.87;14.57;;;;;;;5.98;nan;-23983.72;5094218;28;20253;-68
2021/12/29 07:37:14;;;;;;;25.57;14.53;;;;;;;6.00;nan;-23984.41;5094372;28;20226;-68
2021/12/29 07:39:40;;;;;;;31.20;15.53;;;;;;;6.52;nan;-23999.03;5093805;28;20637;-69
2021/12/29 07:42:07;;;;;;;24.30;14.23;;;;;;;6.18;nan;-23989.53;5093808;28;20285;-69
2021/12/29 07:44:32;;;;;;;27.33;14.90;;;;;;;6.59;nan;-24001.03;5094110;28;20158;-68
2021/12/29 07:46:59;;;;;;;29.17;16.10;;;;;;;6.59;nan;-24000.88;5087759;28;20196;-68
2021/12/29 07:49:26;;;;;;;26.57;14.90;;;;;;;6.57;nan;-24000.31;5090642;28;20220;-68
2021/12/29 07:51:53;;;;;;;31.07;14.97;;;;;;;6.08;nan;-23986.69;5093980;28;20192;-69
2021/12/29 07:54:21;;;;;;;26.97;15.87;;;;;;;6.13;nan;-23988.13;5093657;28;20188;-68
2021/12/29 07:56:46;;;;;;;30.77;15.53;;;;;;;6.72;nan;-24004.56;5075915;28;20662;-67
2021/12/29 07:59:12;;;;;;;32.27;16.50;;;;;;;6.38;nan;-23994.94;5093789;28;20286;-69
2021/12/29 08:01:41;;;;;;;27.13;16.17;;;;;;;6.48;nan;-23997.75;5093680;28;20510;-69
2021/12/29 08:04:10;;;;;;;29.63;15.27;;;;;;;6.13;nan;-23988.13;5093579;28;20200;-69
2021/12/29 08:06:36;;;;;;;28.00;14.90;;;;;;;6.66;nan;-24002.88;5093528;28;20638;-69
2021/12/29 08:09:01;;;;;;;28.17;14.83;;;;;;;6.83;nan;-24007.69;5093306;28;20181;-69
2021/12/29 08:11:27;;;;;;;26.23;14.40;;;;;;;7.05;nan;-24013.94;5093517;28;20351;-69
2021/12/29 08:13:53;;;;;;;25.77;14.43;;;;;;;6.96;nan;-24011.38;5093430;28;20189;-69
2021/12/29 08:16:19;;;;;;;27.80;15.70;;;;;;;7.03;nan;-24013.22;5093496;28;20177;-69
2021/12/29 08:18:44;;;;;;;31.00;17.00;;;;;;;7.08;nan;-24014.78;5093402;28;20197;-68
2021/12/29 08:21:10;;;;;;;31.10;16.20;;;;;;;7.07;nan;-24014.38;5092595;28;20595;-68
2021/12/29 08:23:35;;;;;;;30.13;17.13;;;;;;;7.27;nan;-24020.03;5093122;28;20237;-69
2021/12/29 08:26:01;;;;;;;29.63;15.30;;;;;;;6.71;nan;-24004.16;5093346;28;20174;-68
2021/12/29 08:28:27;;;;;;;28.83;14.97;;;;;;;7.27;nan;-24020.03;5092131;28;20216;-69
2021/12/29 08:30:54;;;;;;;29.00;15.53;;;;;;;6.99;nan;-24012.09;5093249;28;20541;-69
2021/12/29 08:33:20;;;;;;;29.03;15.83;;;;;;;7.24;nan;-24019.19;5092821;28;20197;-69
2021/12/29 08:35:45;;;;;;;30.10;15.87;;;;;;;7.46;nan;-24025.28;5093248;28;20204;-68
2021/12/29 08:38:11;;;;;;;28.53;15.47;;;;;;;7.52;nan;-24027.13;5092540;28;20220;-70
2021/12/29 08:40:37;;;;;;;32.23;17.13;;;;;;;7.59;nan;-24028.81;5093248;28;20204;-68
2021/12/29 08:43:03;;;;;;;32.03;17.07;;;;;;;7.45;nan;-24025.00;5092917;28;20223;-68
2021/12/29 08:45:30;;;;;;;31.37;17.20;;;;;;;7.37;nan;-24022.72;5093058;28;20222;-68
2021/12/29 08:47:58;;;;;;;30.10;16.43;;;;;;;7.21;nan;-24018.19;5092498;28;20645;-68
2021/12/29 08:50:25;;;;;;;34.33;16.90;;;;;;;7.44;nan;-24024.72;5092284;28;20321;-69
2021/12/29 08:52:52;;;;;;;37.53;18.20;;;;;;;7.63;nan;-24030.09;5092770;28;20288;-68
2021/12/29 08:55:17;;;;;;;32.60;17.80;;;;;;;7.47;nan;-24025.56;5092597;28;20173;-68
2021/12/29 08:57:43;;;;;;;33.93;18.97;;;;;;;7.18;nan;-24017.34;5093105;28;20537;-70
2021/12/29 09:00:12;;;;;;;37.00;18.53;;;;;;;7.56;nan;-24028.13;5074758;28;20244;-73
2021/12/29 09:02:38;;;;;;;34.23;18.10;;;;;;;7.71;nan;-24032.38;5075010;28;20260;-69
2021/12/29 09:05:04;;;;;;;33.93;18.60;;;;;;;7.51;nan;-24026.69;5093226;28;20261;-72
2021/12/29 09:07:29;;;;;;;30.33;18.60;;;;;;;7.46;nan;-24025.28;5074382;28;20195;-72
2021/12/29 09:09:55;;;;;;;31.70;18.77;;;;;;;7.51;nan;-24026.84;5074458;28;20276;-70
2021/12/29 09:12:20;;;;;;;32.13;19.10;;;;;;;7.13;nan;-24016.06;5092230;28;20178;-68
2021/12/29 09:14:46;;;;;;;33.43;18.33;;;;;;;6.92;nan;-24010.13;5092487;28;20169;-67
2021/12/29 09:17:12;;;;;;;31.10;18.03;;;;;;;6.90;nan;-24009.53;5092151;28;20177;-68
2021/12/29 09:19:41;;;;;;;32.93;18.10;;;;;;;6.77;nan;-24006.00;5074144;28;20197;-68
2021/12/29 09:22:08;;;;;;;36.10;19.50;;;;;;;6.85;nan;-24008.25;5092348;28;20245;-67
2021/12/29 09:24:33;;;;;;;30.37;18.13;;;;;;;7.31;nan;-24021.03;5092502;28;20169;-70
2021/12/29 09:26:59;;;;;;;37.30;18.07;;;;;;;7.04;nan;-24013.66;5091938;28;20181;-70
2021/12/29 09:29:24;;;;;;;29.27;17.07;;;;;;;6.71;nan;-24004.28;5092134;28;20177;-70
2021/12/29 09:31:50;;;;;;;30.87;16.43;;;;;;;7.50;nan;-24026.56;5092237;28;20171;-70
2021/12/29 09:34:15;;;;;;;29.50;14.83;;;;;;;7.15;nan;-24016.50;5092472;28;20177;-69
2021/12/29 09:36:41;;;;;;;26.53;14.97;;;;;;;7.40;nan;-24023.72;5092529;28;20640;-68
2021/12/29 09:39:06;;;;;;;29.83;16.90;;;;;;;7.22;nan;-24018.63;5092084;28;20284;-68
2021/12/29 09:41:32;;;;;;;24.77;15.60;;;;;;;7.46;nan;-24025.28;5092016;28;20177;-68
2021/12/29 09:43:58;;;;;;;29.23;15.53;;;;;;;6.93;nan;-24010.53;5092096;28;20201;-68
2021/12/29 09:46:23;;;;;;;27.00;15.10;;;;;;;6.79;nan;-24006.56;5092184;28;20201;-68
2021/12/29 09:48:50;;;;;;;29.37;16.30;;;;;;;7.50;nan;-24026.41;5091755;28;20701;-68
2021/12/29 09:51:17;;;;;;;26.67;16.23;;;;;;;7.32;nan;-24021.31;5073661;28;20244;-67
2021/12/29 09:53:43;;;;;;;24.33;15.83;;;;;;;7.22;nan;-24018.47;5091903;28;20271;-67
2021/12/29 09:56:10;;;;;;;30.17;18.17;;;;;;;7.22;nan;-24018.63;5091799;28;20191;-67
2021/12/29 09:58:36;;;;;;;31.10;17.87;;;;;;;7.47;nan;-24025.56;5091939;28;20277;-67
2021/12/29 10:01:04;;;;;;;30.47;16.50;;;;;;;7.68;nan;-24031.53;5091725;28;20323;-68
2021/12/29 10:03:31;;;;;;;24.20;15.70;;;;;;;7.68;nan;-24031.38;5091492;28;20609;-68
2021/12/29 10:05:59;;;;;;;30.67;16.93;;;;;;;7.79;nan;-24034.50;5091748;28;20522;-68
2021/12/29 10:08:43;;;;;;;28.23;16.53;;;;;;;7.50;nan;-24026.41;5092373;28;20178;-68
2021/12/29 10:11:19;;;;;;;26.47;15.67;;;;;;;7.89;nan;-24037.47;5091830;28;20196;-68
2021/12/29 10:13:46;;;;;;;26.27;14.87;;;;;;;7.78;nan;-24034.22;5092080;28;20256;-67
2021/12/29 10:16:25;;;;;;;27.87;15.73;;;;;;;7.35;nan;-24022.16;5091680;28;20314;-68
2021/12/29 10:18:58;;;;;;;25.10;16.47;;;;;;;7.33;nan;-24021.75;5073779;28;20573;-69
2021/12/29 10:21:26;;;;;;;28.93;17.40;;;;;;;7.66;nan;-24030.94;5091488;28;20705;-68
2021/12/29 10:23:53;;;;;;;29.90;16.73;;;;;;;7.03;nan;-24013.38;5091794;28;20203;-68
2021/12/29 10:26:22;;;;;;;26.10;15.63;;;;;;;7.94;nan;-24038.88;5091917;28;20200;-68
2021/12/29 10:28:50;;;;;;;26.33;15.83;;;;;;;7.83;nan;-24035.63;5091475;28;20180;-68
2021/12/29 10:31:24;;;;;;;28.40;16.93;;;;;;;7.91;nan;-24037.88;5091652;28;20191;-67
2021/12/29 10:33:54;;;;;;;27.97;16.10;;;;;;;8.04;nan;-24041.44;5091442;28;20172;-68
2021/12/29 10:36:22;;;;;;;30.30;17.47;;;;;;;8.11;nan;-24043.41;5091447;28;20212;-67
2021/12/29 10:39:04;;;;;;;30.17;16.70;;;;;;;7.97;nan;-24039.59;5091813;28;20189;-68
2021/12/29 10:41:32;;;;;;;25.93;15.33;;;;;;;7.81;nan;-24035.22;5091497;28;20324;-68
2021/12/29 10:44:03;;;;;;;25.90;15.47;;;;;;;7.98;nan;-24040.03;5090820;28;20242;-68
2021/12/29 10:46:31;;;;;;;42.70;24.67;;;;;;;7.94;nan;-24038.88;5090612;28;20185;-68
2021/12/29 10:48:59;;;;;;;30.10;17.43;;;;;;;7.48;nan;-24025.84;5090431;28;20185;-68
2021/12/29 10:51:29;;;;;;;28.67;16.27;;;;;;;7.47;nan;-24025.72;5090135;28;20765;-68
2021/12/29 10:54:04;;;;;;;24.53;14.90;;;;;;;7.88;nan;-24037.03;5093254;28;20178;-68
2021/12/29 10:56:29;;;;;;;25.70;14.70;;;;;;;7.50;nan;-24026.56;5087460;28;20177;-69
2021/12/29 10:58:55;;;;;;;24.37;13.77;;;;;;;7.83;nan;-24035.78;5094225;28;20582;-69
2021/12/29 11:01:22;;;;;;;24.63;14.00;;;;;;;7.96;nan;-24039.44;5094429;28;20189;-68
2021/12/29 11:03:49;;;;;;;23.07;13.97;;;;;;;7.87;nan;-24036.75;5093988;28;20192;-69
2021/12/29 11:06:17;;;;;;;23.63;14.33;;;;;;;7.42;nan;-24024.28;5076264;28;20185;-69
2021/12/29 11:08:58;;;;;;;24.63;15.07;;;;;;;7.53;nan;-24027.41;5095042;28;20315;-68
2021/12/29 11:11:31;;;;;;;29.73;15.73;;;;;;;7.49;nan;-24026.13;5094160;28;20181;-69
2021/12/29 11:14:26;;;;;;;26.23;15.43;;;;;;;7.42;nan;-24024.16;5090616;28;20177;-68
2021/12/29 11:17:02;;;;;;;28.03;16.23;;;;;;;7.52;nan;-24026.97;5094386;28;20633;-69
2021/12/29 11:19:27;;;;;;;31.67;16.40;;;;;;;7.96;nan;-24039.31;5093987;28;20205;-69
2021/12/29 11:22:05;;;;;;;32.37;17.53;;;;;;;7.68;nan;-24031.53;5092971;28;20237;-69
2021/12/29 11:24:31;;;;;;;30.83;16.97;;;;;;;8.04;nan;-24041.44;5092358;28;20185;-69
2021/12/29 11:26:58;;;;;;;33.60;18.70;;;;;;;7.94;nan;-24038.75;5094223;28;20191;-69
2021/12/29 11:29:24;;;;;;;34.60;18.13;;;;;;;7.63;nan;-24029.97;5094275;28;20242;-69
2021/12/29 11:32:07;;;;;;;34.07;18.17;;;;;;;7.67;nan;-24031.25;5094722;28;20197;-69
2021/12/29 11:34:33;;;;;;;31.17;17.90;;;;;;;8.08;nan;-24042.72;5094430;28;20177;-69
2021/12/29 11:37:06;;;;;;;29.80;17.27;;;;;;;8.16;nan;-24044.97;5094383;28;20200;-69